createdAt,value
2022-12-31T00:02:25.749Z,296.25
2022-12-31T00:04:55.832Z,306.50
2022-12-31T00:07:24.045Z,313.23
2022-12-31T00:09:52.231Z,260.63
2022-12-31T00:12:20.531Z,272.73
2022-12-31T00:14:48.704Z,266.33
2022-12-31T00:17:17.047Z,244.15
2022-12-31T00:19:45.153Z,241.38
2022-12-31T00:22:13.363Z,249.13
2022-12-31T00:24:41.608Z,251.23
2022-12-31T00:27:09.835Z,258.65
2022-12-31T00:29:38.191Z,251.57
2022-12-31T00:32:06.718Z,243.32
2022-12-31T00:34:35.243Z,238.57
2022-12-31T00:37:03.515Z,255.25
2022-12-31T00:39:31.873Z,231.57
2022-12-31T00:41:59.962Z,223.68
2022-12-31T00:44:28.280Z,239.25
2022-12-31T00:46:56.515Z,224.20
2022-12-31T00:49:24.779Z,219.82
2022-12-31T00:51:53.129Z,228.45
2022-12-31T00:54:21.271Z,231.88
2022-12-31T00:56:49.472Z,220.50
2022-12-31T00:59:17.659Z,211.75
2022-12-31T01:01:46.035Z,223.00
2022-12-31T01:04:18.077Z,210.68
2022-12-31T01:06:46.759Z,230.63
2022-12-31T01:09:17.051Z,222.57
2022-12-31T01:11:45.616Z,223.23
2022-12-31T01:14:16.782Z,216.15
2022-12-31T01:16:52.859Z,214.23
2022-12-31T01:19:25.552Z,206.93
2022-12-31T01:21:54.750Z,241.27
2022-12-31T01:24:22.922Z,226.93
2022-12-31T01:26:51.364Z,193.00
2022-12-31T01:29:19.698Z,197.15
2022-12-31T01:31:48.032Z,200.07
2022-12-31T01:34:16.238Z,212.52
2022-12-31T01:36:45.454Z,182.05
2022-12-31T01:39:14.394Z,200.50
2022-12-31T01:41:45.228Z,183.32
2022-12-31T01:44:13.369Z,177.35
2022-12-31T01:46:53.178Z,177.80
2022-12-31T01:49:42.360Z,146.77
2022-12-31T01:52:24.561Z,145.10
2022-12-31T01:57:26.948Z,175.80
2022-12-31T01:59:57.120Z,154.73
2022-12-31T02:02:26.187Z,156.80
2022-12-31T02:04:57.686Z,148.40
2022-12-31T02:07:26.368Z,139.50
2022-12-31T02:09:55.006Z,140.75
2022-12-31T02:12:23.527Z,138.68
2022-12-31T02:14:53.767Z,134.25
2022-12-31T02:17:56.194Z,130.48
2022-12-31T02:20:51.175Z,123.95
2022-12-31T02:23:26.216Z,118.25
2022-12-31T02:26:12.774Z,124.38
2022-12-31T02:29:05.686Z,122.55
2022-12-31T02:31:55.575Z,142.75
2022-12-31T02:34:37.685Z,125.50
2022-12-31T02:37:11.227Z,151.48
2022-12-31T02:39:41.642Z,134.93
2022-12-31T02:42:12.198Z,147.30
2022-12-31T02:44:43.075Z,146.07
2022-12-31T02:47:29.851Z,143.00
2022-12-31T02:50:27.572Z,150.70
2022-12-31T02:53:13.402Z,118.22
2022-12-31T02:55:47.949Z,108.53
2022-12-31T02:58:19.285Z,116.15
2022-12-31T03:00:52.422Z,123.82
2022-12-31T03:03:22.331Z,120.15
2022-12-31T03:05:51.383Z,102.63
2022-12-31T03:08:26.949Z,111.70
2022-12-31T03:10:55.206Z,112.20
2022-12-31T03:13:24.659Z,124.70
2022-12-31T03:15:52.967Z,111.53
2022-12-31T03:18:21.182Z,111.68
2022-12-31T03:20:51.602Z,115.88
2022-12-31T03:23:23.631Z,125.53
2022-12-31T03:25:52.045Z,84.07
2022-12-31T03:28:22.975Z,100.85
2022-12-31T03:30:54.671Z,95.60
2022-12-31T03:33:24.697Z,109.45
2022-12-31T03:35:54.266Z,84.63
2022-12-31T03:38:22.519Z,93.38
2022-12-31T03:40:52.641Z,107.18
2022-12-31T03:43:21.315Z,95.88
2022-12-31T03:45:54.403Z,88.32
2022-12-31T03:48:24.212Z,91.13
2022-12-31T03:50:52.528Z,96.10
2022-12-31T03:53:20.856Z,86.65
2022-12-31T03:55:53.348Z,94.45
2022-12-31T03:58:22.292Z,96.00
2022-12-31T04:00:51.052Z,91.18
2022-12-31T04:03:19.785Z,96.78
2022-12-31T04:05:56.364Z,101.40
2022-12-31T04:08:25.198Z,98.65
2022-12-31T04:10:53.645Z,85.32
2022-12-31T04:13:21.849Z,94.43
2022-12-31T04:15:53.048Z,87.30
2022-12-31T04:18:21.385Z,96.28
2022-12-31T04:20:49.420Z,114.95
2022-12-31T04:23:19.014Z,92.07
2022-12-31T04:25:47.342Z,94.85
2022-12-31T04:28:15.445Z,74.13
2022-12-31T04:30:44.565Z,79.25
2022-12-31T04:33:12.978Z,87.30
2022-12-31T04:35:41.235Z,70.72
2022-12-31T04:38:09.462Z,91.57
2022-12-31T04:40:37.639Z,80.32
2022-12-31T04:43:06.064Z,74.95
2022-12-31T04:45:34.321Z,64.20
2022-12-31T04:48:02.608Z,75.45
2022-12-31T04:50:30.751Z,74.78
2022-12-31T04:52:58.947Z,72.85
2022-12-31T04:55:27.221Z,78.30
2022-12-31T04:57:55.471Z,61.83
2022-12-31T05:00:23.792Z,79.70
2022-12-31T05:02:52.018Z,77.00
2022-12-31T05:05:20.168Z,69.78
2022-12-31T05:07:48.498Z,76.60
2022-12-31T05:10:16.743Z,68.22
2022-12-31T05:12:44.944Z,69.47
2022-12-31T05:15:13.388Z,66.07
2022-12-31T05:17:41.577Z,64.43
2022-12-31T05:20:10.064Z,62.15
2022-12-31T05:22:38.345Z,80.30
2022-12-31T05:25:07.006Z,57.97
2022-12-31T05:27:35.388Z,68.38
2022-12-31T05:30:03.537Z,61.90
2022-12-31T05:32:31.906Z,65.50
2022-12-31T05:35:00.741Z,75.03
2022-12-31T05:37:30.507Z,61.38
2022-12-31T05:39:59.019Z,60.17
2022-12-31T05:42:27.596Z,54.17
2022-12-31T05:44:55.983Z,72.32
2022-12-31T05:47:24.535Z,66.78
2022-12-31T05:49:53.032Z,59.67
2022-12-31T05:52:22.007Z,61.85
2022-12-31T05:54:50.732Z,63.25
2022-12-31T05:57:19.031Z,76.68
2022-12-31T05:59:47.414Z,65.10
2022-12-31T06:02:15.760Z,72.07
2022-12-31T06:04:44.168Z,71.38
2022-12-31T06:07:12.581Z,56.45
2022-12-31T06:09:40.999Z,58.28
2022-12-31T06:12:09.929Z,60.58
2022-12-31T06:14:43.804Z,69.13
2022-12-31T06:17:13.949Z,67.47
2022-12-31T06:19:42.148Z,64.32
2022-12-31T06:22:10.398Z,88.97
2022-12-31T06:24:38.776Z,66.95
2022-12-31T06:27:07.055Z,68.20
2022-12-31T06:29:35.128Z,68.05
2022-12-31T06:32:03.506Z,76.10
2022-12-31T06:34:31.801Z,82.32
2022-12-31T06:37:00.599Z,69.25
2022-12-31T06:39:29.015Z,77.25
2022-12-31T06:41:57.369Z,81.63
2022-12-31T06:44:25.583Z,74.25
2022-12-31T06:46:53.829Z,95.65
2022-12-31T06:49:24.517Z,72.88
2022-12-31T06:51:52.835Z,80.50
2022-12-31T06:54:21.342Z,102.18
2022-12-31T06:56:49.856Z,73.10
2022-12-31T06:59:27.510Z,71.88
2022-12-31T07:02:05.007Z,88.93
2022-12-31T07:05:09.401Z,94.30
2022-12-31T07:08:05.094Z,96.28
2022-12-31T07:11:02.982Z,85.38
2022-12-31T07:14:08.213Z,82.05
2022-12-31T07:16:51.695Z,77.60
2022-12-31T07:19:41.335Z,80.13
2022-12-31T07:22:16.076Z,85.25
2022-12-31T07:24:44.987Z,81.70
2022-12-31T07:27:37.923Z,67.47
2022-12-31T07:30:18.559Z,72.38
2022-12-31T07:32:57.522Z,84.82
2022-12-31T07:35:45.559Z,81.55
2022-12-31T07:38:38.420Z,82.72
2022-12-31T07:41:43.903Z,86.60
2022-12-31T07:44:15.236Z,77.53
2022-12-31T07:47:00.601Z,77.83
2022-12-31T07:49:31.573Z,94.45
2022-12-31T07:52:00.486Z,88.05
2022-12-31T07:54:28.860Z,72.32
2022-12-31T07:56:56.978Z,70.15
2022-12-31T07:59:43.695Z,76.07
2022-12-31T08:02:15.069Z,68.88
2022-12-31T08:04:49.710Z,66.65
2022-12-31T08:07:42.758Z,67.55
2022-12-31T08:10:17.286Z,47.83
2022-12-31T08:12:49.086Z,49.20
2022-12-31T08:15:20.045Z,44.50
2022-12-31T08:17:49.819Z,54.58
2022-12-31T08:20:18.927Z,37.78
2022-12-31T08:23:08.665Z,42.58
2022-12-31T08:26:14.098Z,44.47
2022-12-31T08:28:42.427Z,34.03
2022-12-31T08:31:23.914Z,36.15
2022-12-31T08:34:05.499Z,47.73
2022-12-31T08:37:01.837Z,50.17
2022-12-31T08:39:36.986Z,44.47
2022-12-31T08:42:11.539Z,53.08
2022-12-31T08:45:13.386Z,45.33
2022-12-31T08:48:00.057Z,40.67
2022-12-31T08:50:29.052Z,52.38
2022-12-31T08:52:57.563Z,61.42
2022-12-31T08:58:34.865Z,56.75
2022-12-31T09:01:07.857Z,51.05
2022-12-31T09:03:51.114Z,48.03
2022-12-31T09:06:31.435Z,44.95
2022-12-31T09:11:55.602Z,45.17
2022-12-31T09:14:44.108Z,36.85
2022-12-31T09:17:45.025Z,42.47
2022-12-31T09:20:43.006Z,49.55
2022-12-31T09:23:13.664Z,45.22
2022-12-31T09:25:57.214Z,37.67
2022-12-31T09:28:52.628Z,38.92
2022-12-31T09:31:40.981Z,52.88
2022-12-31T09:34:19.512Z,48.70
2022-12-31T09:36:53.073Z,50.00
2022-12-31T09:39:37.753Z,50.25
2022-12-31T09:42:26.207Z,49.15
2022-12-31T09:45:10.057Z,53.30
2022-12-31T09:48:05.128Z,52.00
2022-12-31T09:51:18.146Z,50.00
2022-12-31T09:54:27.571Z,49.53
2022-12-31T09:57:11.292Z,45.97
2022-12-31T09:59:46.143Z,61.42
2022-12-31T10:02:36.188Z,54.75
2022-12-31T10:05:36.136Z,32.45
2022-12-31T10:08:35.367Z,39.53
2022-12-31T10:11:33.880Z,34.30
2022-12-31T10:14:04.974Z,35.05
2022-12-31T10:16:53.705Z,42.67
2022-12-31T10:19:34.062Z,47.50
2022-12-31T10:22:15.328Z,44.63
2022-12-31T10:24:51.190Z,43.53
2022-12-31T10:27:38.091Z,47.63
2022-12-31T10:30:23.008Z,50.08
2022-12-31T10:33:08.183Z,44.50
2022-12-31T10:35:56.660Z,44.50
2022-12-31T10:38:48.935Z,60.58
2022-12-31T10:41:26.160Z,49.15
2022-12-31T10:44:28.701Z,35.30
2022-12-31T10:47:27.688Z,46.45
2022-12-31T10:50:37.644Z,53.70
2022-12-31T10:53:26.045Z,45.33
2022-12-31T10:56:03.684Z,51.78
2022-12-31T10:59:14.246Z,42.00
2022-12-31T11:02:01.403Z,59.70
2022-12-31T11:05:06.965Z,84.95
2022-12-31T11:08:03.001Z,54.55
2022-12-31T11:10:42.416Z,86.60
2022-12-31T11:13:21.360Z,67.03
2022-12-31T11:16:03.622Z,48.92
2022-12-31T11:19:18.260Z,72.53
2022-12-31T11:22:11.976Z,56.88
2022-12-31T11:24:52.818Z,36.60
2022-12-31T11:28:06.456Z,46.25
2022-12-31T11:30:59.339Z,42.30
2022-12-31T11:33:48.454Z,59.85
2022-12-31T11:37:08.895Z,48.75
2022-12-31T11:40:04.605Z,55.13
2022-12-31T11:42:53.830Z,48.08
2022-12-31T11:45:55.274Z,49.67
2022-12-31T11:49:02.499Z,56.37
2022-12-31T11:51:33.859Z,31.33
2022-12-31T11:54:39.460Z,44.72
2022-12-31T11:57:26.133Z,44.13
2022-12-31T12:00:18.559Z,50.05
2022-12-31T12:03:05.171Z,35.15
2022-12-31T12:05:35.521Z,48.67
2022-12-31T12:08:04.270Z,49.60
2022-12-31T12:10:41.569Z,59.33
2022-12-31T12:13:24.915Z,40.72
2022-12-31T12:16:06.701Z,42.75
2022-12-31T12:21:16.783Z,50.33
2022-12-31T12:24:07.306Z,54.53
2022-12-31T12:26:41.498Z,42.83
2022-12-31T12:29:16.837Z,54.97
2022-12-31T12:32:00.183Z,52.28
2022-12-31T12:34:37.646Z,50.60
2022-12-31T12:37:08.843Z,35.03
2022-12-31T12:39:37.112Z,57.47
2022-12-31T12:42:15.237Z,60.63
2022-12-31T12:44:43.463Z,46.83
2022-12-31T12:47:19.903Z,36.15
2022-12-31T12:49:50.304Z,54.03
2022-12-31T12:52:40.236Z,41.58
2022-12-31T12:55:30.794Z,43.75
2022-12-31T12:58:08.258Z,63.90
2022-12-31T13:00:55.161Z,56.05
2022-12-31T13:04:32.467Z,38.40
2022-12-31T13:06:53.270Z,42.53
2022-12-31T13:09:46.203Z,50.90
2022-12-31T13:12:48.871Z,45.42
2022-12-31T13:15:46.148Z,42.45
2022-12-31T13:18:14.398Z,40.42
2022-12-31T13:21:08.665Z,35.05
2022-12-31T13:23:47.637Z,53.42
2022-12-31T13:26:38.931Z,60.65
2022-12-31T13:29:15.199Z,32.35
2022-12-31T13:31:46.339Z,47.90
2022-12-31T13:34:17.395Z,44.50
2022-12-31T13:36:49.491Z,45.78
2022-12-31T13:41:56.139Z,58.90
2022-12-31T13:44:47.841Z,55.72
2022-12-31T13:47:31.217Z,37.33
2022-12-31T13:50:15.392Z,38.75
2022-12-31T13:52:50.051Z,33.15
2022-12-31T13:55:32.760Z,43.13
2022-12-31T13:58:37.901Z,67.65
2022-12-31T14:01:15.492Z,55.47
2022-12-31T14:04:05.233Z,65.90
2022-12-31T14:06:37.253Z,51.95
2022-12-31T14:09:07.899Z,34.70
2022-12-31T14:11:59.086Z,40.00
2022-12-31T14:14:35.408Z,65.80
2022-12-31T14:17:17.290Z,95.97
2022-12-31T14:22:33.078Z,45.15
2022-12-31T14:25:04.862Z,84.25
2022-12-31T14:30:16.385Z,49.85
2022-12-31T14:33:09.977Z,53.42
2022-12-31T14:36:08.272Z,65.70
2022-12-31T14:38:50.873Z,63.95
2022-12-31T14:41:37.683Z,53.55
2022-12-31T14:44:10.196Z,38.92
2022-12-31T14:47:01.841Z,37.28
2022-12-31T14:49:46.311Z,62.20
2022-12-31T14:52:21.387Z,45.25
2022-12-31T14:55:12.013Z,33.42
2022-12-31T14:58:17.090Z,30.58
2022-12-31T15:00:35.408Z,40.67
2022-12-31T15:03:16.019Z,42.47
2022-12-31T15:06:13.009Z,46.95
2022-12-31T15:08:56.025Z,49.67
2022-12-31T15:18:05.152Z,42.55
2022-12-31T15:20:45.427Z,45.40
2022-12-31T15:27:39.205Z,34.97
2022-12-31T15:31:21.609Z,53.97
2022-12-31T15:34:05.361Z,46.22
2022-12-31T15:36:38.670Z,41.00
2022-12-31T15:39:23.508Z,46.40
2022-12-31T15:44:49.877Z,79.10
2022-12-31T15:47:36.528Z,53.70
2022-12-31T15:50:17.543Z,39.28
2022-12-31T15:53:02.563Z,49.90
2022-12-31T15:55:35.097Z,71.72
2022-12-31T15:58:12.485Z,57.03
2022-12-31T16:00:55.808Z,50.20
2022-12-31T16:03:26.323Z,44.03
2022-12-31T16:06:03.910Z,55.38
2022-12-31T16:08:35.082Z,59.17
2022-12-31T16:11:06.575Z,114.60
2022-12-31T16:13:38.388Z,43.25
2022-12-31T16:16:23.195Z,66.80
2022-12-31T16:18:51.842Z,69.05
2022-12-31T16:21:37.640Z,61.45
2022-12-31T16:24:28.720Z,54.65
2022-12-31T16:27:01.129Z,74.32
2022-12-31T16:29:29.779Z,52.17
2022-12-31T16:31:59.043Z,52.60
2022-12-31T16:34:28.565Z,60.88
2022-12-31T16:37:04.463Z,56.65
2022-12-31T16:39:38.723Z,62.95
2022-12-31T16:42:19.984Z,43.45
2022-12-31T16:44:49.522Z,61.42
2022-12-31T16:47:24.567Z,42.58
2022-12-31T16:50:12.994Z,51.15
2022-12-31T16:52:47.272Z,66.10
2022-12-31T16:55:20.433Z,35.10
2022-12-31T16:57:52.927Z,79.07
2022-12-31T17:00:21.620Z,42.67
2022-12-31T17:03:15.367Z,59.53
2022-12-31T17:06:08.379Z,58.17
2022-12-31T17:08:45.983Z,49.03
2022-12-31T17:11:35.251Z,82.32
2022-12-31T17:14:09.779Z,67.25
2022-12-31T17:16:43.430Z,95.25
2022-12-31T17:19:48.073Z,62.22
2022-12-31T17:22:34.250Z,115.85
2022-12-31T17:25:26.031Z,105.13
2022-12-31T17:28:20.812Z,69.30
2022-12-31T17:30:49.613Z,70.20
2022-12-31T17:33:23.984Z,80.32
2022-12-31T17:36:15.270Z,86.95
2022-12-31T17:38:43.921Z,92.47
2022-12-31T17:41:27.737Z,48.33
2022-12-31T17:43:57.559Z,51.97
2022-12-31T17:46:27.191Z,72.68
2022-12-31T17:49:00.107Z,61.53
2022-12-31T17:51:28.526Z,85.45
2022-12-31T17:53:56.925Z,101.32
2022-12-31T17:56:25.058Z,65.78
2022-12-31T17:58:54.456Z,82.50
2022-12-31T18:01:24.161Z,81.07
2022-12-31T18:03:52.577Z,90.00
2022-12-31T18:06:20.915Z,88.15
2022-12-31T18:08:49.283Z,115.25
2022-12-31T18:11:26.684Z,101.20
2022-12-31T18:13:55.135Z,114.85
2022-12-31T18:16:23.537Z,105.80
2022-12-31T18:18:51.943Z,95.93
2022-12-31T18:21:32.124Z,121.63
2022-12-31T18:26:29.775Z,142.50
2022-12-31T18:29:00.431Z,108.03
2022-12-31T18:31:30.733Z,122.78
2022-12-31T18:34:00.017Z,148.80
2022-12-31T18:36:29.649Z,138.90
2022-12-31T18:38:57.989Z,123.45
2022-12-31T18:41:28.456Z,144.63
2022-12-31T18:43:56.796Z,136.30
2022-12-31T18:46:25.825Z,136.32
2022-12-31T18:48:54.019Z,159.30
2022-12-31T18:51:31.312Z,153.88
2022-12-31T18:54:01.762Z,173.00
2022-12-31T18:56:30.147Z,213.35
2022-12-31T18:58:58.557Z,208.48
2022-12-31T19:01:38.388Z,187.93
2022-12-31T19:04:27.024Z,196.40
2022-12-31T19:06:58.275Z,192.98
2022-12-31T19:12:16.003Z,179.55
2022-12-31T19:14:44.433Z,215.68
2022-12-31T19:17:12.621Z,213.57
2022-12-31T19:19:41.035Z,182.80
2022-12-31T19:22:16.083Z,202.82
2022-12-31T19:24:44.467Z,174.55
2022-12-31T19:27:12.831Z,246.23
2022-12-31T19:29:41.096Z,269.20
2022-12-31T19:32:09.589Z,293.15
2022-12-31T19:34:37.966Z,303.48
2022-12-31T19:37:06.284Z,255.65
2022-12-31T19:39:34.418Z,247.38
2022-12-31T19:42:02.614Z,224.98
2022-12-31T19:44:30.976Z,227.02
2022-12-31T19:46:59.119Z,229.40
2022-12-31T19:49:27.264Z,245.80
2022-12-31T19:51:55.636Z,264.17
2022-12-31T19:54:23.888Z,286.45
2022-12-31T19:56:52.114Z,310.48
2022-12-31T19:59:20.364Z,318.08
2022-12-31T20:01:48.687Z,287.40
2022-12-31T20:04:17.082Z,290.08
2022-12-31T20:06:45.298Z,344.25
2022-12-31T20:09:13.681Z,292.80
2022-12-31T20:11:42.120Z,257.08
2022-12-31T20:14:10.521Z,261.55
2022-12-31T20:16:38.865Z,280.00
2022-12-31T20:19:07.270Z,247.73
2022-12-31T20:21:35.438Z,276.35
2022-12-31T20:24:03.596Z,234.90
2022-12-31T20:26:31.957Z,248.55
2022-12-31T20:29:00.116Z,226.40
2022-12-31T20:31:29.522Z,240.25
2022-12-31T20:33:57.855Z,199.45
2022-12-31T20:36:26.063Z,217.55
2022-12-31T20:38:54.239Z,193.98
2022-12-31T20:41:23.998Z,211.63
2022-12-31T20:43:52.662Z,203.93
2022-12-31T20:46:25.927Z,213.75
2022-12-31T20:48:55.997Z,204.98
2022-12-31T20:51:25.497Z,186.20
2022-12-31T20:53:56.053Z,183.52
2022-12-31T20:56:27.263Z,213.48
2022-12-31T20:58:56.021Z,207.83
2022-12-31T21:01:25.262Z,193.45
2022-12-31T21:04:04.830Z,186.57
2022-12-31T21:07:50.226Z,190.60
2022-12-31T21:10:18.622Z,176.35
2022-12-31T21:12:46.806Z,187.50
2022-12-31T21:15:15.183Z,194.05
2022-12-31T21:17:43.429Z,193.93
2022-12-31T21:20:12.265Z,182.10
2022-12-31T21:22:40.636Z,196.88
2022-12-31T21:25:10.343Z,235.77
2022-12-31T21:27:38.648Z,213.93
2022-12-31T21:30:22.602Z,217.85
2022-12-31T21:32:50.960Z,196.23
2022-12-31T21:38:09.012Z,178.48
2022-12-31T21:40:37.871Z,190.15
2022-12-31T21:43:06.337Z,228.10
2022-12-31T21:45:34.858Z,231.60
2022-12-31T21:48:03.518Z,246.38
2022-12-31T21:50:31.827Z,239.70
2022-12-31T21:53:00.108Z,299.92
2022-12-31T21:55:28.273Z,300.83
2022-12-31T21:58:27.390Z,308.95
2022-12-31T22:00:44.675Z,264.02
2022-12-31T22:03:13.430Z,305.23
2022-12-31T22:06:01.653Z,300.83
2022-12-31T22:08:31.294Z,311.35
2022-12-31T22:10:59.516Z,334.67
2022-12-31T22:13:27.756Z,352.42
2022-12-31T22:16:04.338Z,350.50
2022-12-31T22:18:36.046Z,344.38
2022-12-31T22:21:18.929Z,338.73
2022-12-31T22:23:50.036Z,318.52
2022-12-31T22:26:20.363Z,336.38
2022-12-31T22:28:48.920Z,339.95
2022-12-31T22:31:20.360Z,340.63
2022-12-31T22:33:48.913Z,389.55
2022-12-31T22:36:20.726Z,404.42
2022-12-31T22:38:49.930Z,448.17
2022-12-31T22:41:20.821Z,429.35
2022-12-31T22:43:51.373Z,430.80
2022-12-31T22:46:24.951Z,416.83
2022-12-31T22:48:57.591Z,434.25
2022-12-31T22:51:30.528Z,415.38
2022-12-31T22:54:15.489Z,427.38
2022-12-31T22:56:43.729Z,434.75
2022-12-31T22:59:11.990Z,445.35
2022-12-31T23:01:40.254Z,458.63
2022-12-31T23:04:08.737Z,445.73
2022-12-31T23:06:37.080Z,427.00
2022-12-31T23:09:05.510Z,440.42
2022-12-31T23:11:39.026Z,412.55
2022-12-31T23:14:08.730Z,436.45
2022-12-31T23:16:37.213Z,423.77
2022-12-31T23:19:05.984Z,409.95
2022-12-31T23:21:34.342Z,381.77
2022-12-31T23:24:02.517Z,375.60
2022-12-31T23:26:30.812Z,380.15
2022-12-31T23:28:59.183Z,342.95
2022-12-31T23:31:27.496Z,360.55
2022-12-31T23:33:56.301Z,358.17
2022-12-31T23:36:24.701Z,300.88
2022-12-31T23:38:55.685Z,294.40
2022-12-31T23:41:24.184Z,299.80
2022-12-31T23:43:52.379Z,314.75
2022-12-31T23:46:20.796Z,320.30
2022-12-31T23:48:49.037Z,302.10
2022-12-31T23:51:17.373Z,289.90
2022-12-31T23:53:45.562Z,287.15
2022-12-31T23:56:23.018Z,254.15
2022-12-31T23:58:56.199Z,241.40
